Terminal Aerodrome Forecast
Issued by NWS

Home | Current Version | Previous Version | Text Only | Print | Product List | Glossary On
Versions: 1 2 3 4 5 6 7 8 9 10 11 12 13 14 15 16 17 18 19 20 21 22 23
000
FTPA31 PHFO 230300 AAB
TAFMKK
TAF AMD
PHMK 230301Z 2303/2324 06006KT 3SM -RA BR SCT008 BKN020
      TEMPO 2303/2305 1SM +SHRA BR BKN008
     FM230500 04006KT P6SM VCSH SCT025 BKN045
     FM232000 04012G17KT P6SM FEW030 SCT045=

USA.gov is the U.S. government's official web portal to all federal, state and local government web resources and services.